createdAt,value
2017-12-19T00:00:01.326Z,42.40
2017-12-19T00:01:01.316Z,43.40
2017-12-19T00:02:01.302Z,44.60
2017-12-19T00:03:01.294Z,43.90
2017-12-19T00:04:01.276Z,43.70
2017-12-19T00:05:01.266Z,42.60
2017-12-19T00:06:01.253Z,43.90
2017-12-19T00:07:01.241Z,43.60
2017-12-19T00:08:01.229Z,43.70
2017-12-19T00:09:01.217Z,42.60
2017-12-19T00:10:01.206Z,42.70
2017-12-19T00:11:01.201Z,43.60
2017-12-19T00:12:01.188Z,42.70
2017-12-19T00:13:01.176Z,41.50
2017-12-19T00:14:01.163Z,42.30
2017-12-19T00:15:01.153Z,44.20
2017-12-19T00:16:01.142Z,42.80
2017-12-19T00:17:01.129Z,43.70
2017-12-19T00:18:01.117Z,41.70
2017-12-19T00:19:01.103Z,43.90
2017-12-19T00:20:01.091Z,44.30
2017-12-19T00:21:01.081Z,45.40
2017-12-19T00:22:01.068Z,43.80
2017-12-19T00:23:01.057Z,44.10
2017-12-19T00:24:01.046Z,44.60
2017-12-19T00:25:01.034Z,42.50
2017-12-19T00:26:01.021Z,44.90
2017-12-19T00:27:01.015Z,42.20
2017-12-19T00:28:01.003Z,42.70
2017-12-19T00:29:00.991Z,44.20
2017-12-19T00:30:00.980Z,43.80
2017-12-19T00:31:00.967Z,42.60
2017-12-19T00:32:00.957Z,42.20
2017-12-19T00:33:00.945Z,43.40
2017-12-19T00:34:00.934Z,44.50
2017-12-19T00:35:00.918Z,44.50
2017-12-19T00:36:00.907Z,43.40
2017-12-19T00:37:00.894Z,42.00
2017-12-19T00:38:00.883Z,45.90
2017-12-19T00:39:00.872Z,45.20
2017-12-19T00:40:00.861Z,44.20
2017-12-19T00:41:00.847Z,46.40
2017-12-19T00:42:00.838Z,45.50
2017-12-19T00:43:00.828Z,47.30
2017-12-19T00:44:00.819Z,47.10
2017-12-19T00:45:00.806Z,45.10
2017-12-19T00:46:00.795Z,42.80
2017-12-19T00:47:00.779Z,45.40
2017-12-19T00:48:00.768Z,44.70
2017-12-19T00:49:00.755Z,46.90
2017-12-19T00:50:00.744Z,46.30
2017-12-19T00:51:00.738Z,47.40
2017-12-19T00:52:00.725Z,45.70
2017-12-19T00:53:00.711Z,48.20
2017-12-19T00:54:00.702Z,48.30
2017-12-19T00:55:00.691Z,47.40
2017-12-19T00:56:00.679Z,49.40
2017-12-19T00:57:00.665Z,47.60
2017-12-19T00:58:00.655Z,48.10
2017-12-19T00:59:00.638Z,46.10
2017-12-19T01:00:00.629Z,47.20
2017-12-19T01:01:00.616Z,46.90
2017-12-19T01:02:00.604Z,46.80
2017-12-19T01:03:00.592Z,47.50
2017-12-19T01:04:00.587Z,46.90
2017-12-19T01:05:00.571Z,49.30
2017-12-19T01:06:00.558Z,46.90
2017-12-19T01:07:00.550Z,48.20
2017-12-19T01:08:00.539Z,45.70
2017-12-19T01:09:00.525Z,48.10
2017-12-19T01:10:00.515Z,46.10
2017-12-19T01:11:00.504Z,46.80
2017-12-19T01:12:00.493Z,46.30
2017-12-19T01:13:00.478Z,44.60
2017-12-19T01:14:00.529Z,44.50
2017-12-19T01:15:00.451Z,43.90
2017-12-19T01:16:00.440Z,45.50
2017-12-19T01:17:00.429Z,45.60
2017-12-19T01:18:00.418Z,45.70
2017-12-19T01:19:00.405Z,44.70
2017-12-19T01:20:00.395Z,45.80
2017-12-19T01:21:00.382Z,45.50
2017-12-19T01:22:00.370Z,44.50
2017-12-19T01:23:00.363Z,44.90
2017-12-19T01:24:00.352Z,45.10
2017-12-19T01:25:00.339Z,44.40
2017-12-19T01:26:00.328Z,45.60
2017-12-19T01:27:00.317Z,45.40
2017-12-19T01:28:00.305Z,46.40
2017-12-19T01:29:00.292Z,46.20
2017-12-19T01:30:00.280Z,44.90
2017-12-19T01:31:00.265Z,46.10
2017-12-19T01:32:00.253Z,46.60
2017-12-19T01:33:00.244Z,45.90
2017-12-19T01:34:00.229Z,47.30
2017-12-19T01:35:00.218Z,46.80
2017-12-19T01:36:00.207Z,46.20
2017-12-19T01:37:00.194Z,46.90
2017-12-19T01:38:00.181Z,47.50
2017-12-19T01:39:00.175Z,47.10
2017-12-19T01:40:00.164Z,49.90
2017-12-19T01:41:00.150Z,48.80
2017-12-19T01:42:00.139Z,51.00
2017-12-19T01:43:00.128Z,47.00
2017-12-19T01:44:00.115Z,48.40
2017-12-19T01:45:00.102Z,47.00
2017-12-19T01:46:00.092Z,48.90
2017-12-19T01:47:00.076Z,46.90
2017-12-19T01:48:00.064Z,47.30
2017-12-19T01:49:00.052Z,47.10
2017-12-19T01:50:00.039Z,46.50
2017-12-19T01:51:00.033Z,44.00
2017-12-19T01:52:00.021Z,44.50
2017-12-19T01:53:00.009Z,41.90
2017-12-19T01:53:59.997Z,42.90
2017-12-19T01:54:59.981Z,41.70
2017-12-19T01:55:59.969Z,42.00
2017-12-19T01:56:59.956Z,40.40
2017-12-19T01:57:59.945Z,42.70
2017-12-19T01:58:59.941Z,42.90
2017-12-19T01:59:59.923Z,42.70
2017-12-19T02:00:59.910Z,42.00
2017-12-19T02:01:59.898Z,41.00
2017-12-19T02:02:59.891Z,39.80
2017-12-19T02:03:59.878Z,40.50
2017-12-19T02:04:59.867Z,39.50
2017-12-19T02:05:59.854Z,39.80
2017-12-19T02:06:59.844Z,41.00
2017-12-19T02:07:59.831Z,40.80
2017-12-19T02:08:59.820Z,39.30
2017-12-19T02:09:59.808Z,39.90
2017-12-19T02:10:59.798Z,40.60
2017-12-19T02:11:59.779Z,41.10
2017-12-19T02:12:59.768Z,39.60
2017-12-19T02:13:59.755Z,39.00
2017-12-19T02:14:59.745Z,39.30
2017-12-19T02:15:59.731Z,39.80
2017-12-19T02:16:59.724Z,39.90
2017-12-19T02:17:59.708Z,39.60
2017-12-19T02:18:59.700Z,40.40
2017-12-19T02:19:59.690Z,40.40
2017-12-19T02:20:59.680Z,40.90
2017-12-19T02:21:59.665Z,39.70
2017-12-19T02:22:59.653Z,38.90
2017-12-19T02:23:59.642Z,39.70
2017-12-19T02:24:59.630Z,39.50
2017-12-19T02:25:59.618Z,39.50
2017-12-19T02:26:59.602Z,38.50
2017-12-19T02:27:59.590Z,39.00
2017-12-19T02:28:59.578Z,39.90
2017-12-19T02:29:59.566Z,39.10
2017-12-19T02:30:59.558Z,39.70
2017-12-19T02:31:59.544Z,40.00
2017-12-19T02:32:59.531Z,38.70
2017-12-19T02:33:59.520Z,39.40
2017-12-19T02:34:59.512Z,38.60
2017-12-19T02:35:59.500Z,38.70
2017-12-19T02:36:59.487Z,37.70
2017-12-19T02:37:59.477Z,38.30
2017-12-19T02:38:59.464Z,37.50
2017-12-19T02:39:59.453Z,37.20
2017-12-19T02:40:59.442Z,38.10
2017-12-19T02:41:59.429Z,37.70
2017-12-19T02:42:59.415Z,38.40
2017-12-19T02:43:59.403Z,39.00
2017-12-19T02:44:59.388Z,38.30
2017-12-19T02:45:59.379Z,38.90
2017-12-19T02:46:59.366Z,38.00
2017-12-19T02:47:59.355Z,39.40
2017-12-19T02:48:59.342Z,40.10
2017-12-19T02:49:59.331Z,38.70
2017-12-19T02:50:59.324Z,39.00
2017-12-19T02:51:59.313Z,38.40
2017-12-19T02:52:59.301Z,39.10
2017-12-19T02:53:59.291Z,38.60
2017-12-19T02:54:59.273Z,38.80
2017-12-19T02:55:59.261Z,38.30
2017-12-19T02:56:59.249Z,38.40
2017-12-19T02:57:59.237Z,35.00
2017-12-19T02:58:59.231Z,38.60
2017-12-19T02:59:59.219Z,37.90
2017-12-19T03:00:59.207Z,39.60
2017-12-19T03:01:59.196Z,39.80
2017-12-19T03:02:59.185Z,37.20
2017-12-19T03:03:59.172Z,40.20
2017-12-19T03:04:59.160Z,38.40
2017-12-19T03:05:59.149Z,38.70
2017-12-19T03:06:59.133Z,38.50
2017-12-19T03:07:59.121Z,36.80
2017-12-19T03:08:59.109Z,37.40
2017-12-19T03:09:59.098Z,37.70
2017-12-19T03:10:59.086Z,36.20
2017-12-19T03:11:59.074Z,36.10
2017-12-19T03:12:59.063Z,35.50
2017-12-19T03:13:59.051Z,36.30
2017-12-19T03:14:59.045Z,36.20
2017-12-19T03:15:59.032Z,35.30
2017-12-19T03:16:59.020Z,35.60
2017-12-19T03:17:59.009Z,34.70
2017-12-19T03:18:58.998Z,36.20
2017-12-19T03:19:58.987Z,35.70
2017-12-19T03:20:58.973Z,37.90
2017-12-19T03:21:58.965Z,37.90
2017-12-19T03:22:58.948Z,37.30
2017-12-19T03:23:58.936Z,36.50
2017-12-19T03:24:58.923Z,35.60
2017-12-19T03:25:58.912Z,35.30
2017-12-19T03:26:58.900Z,36.20
2017-12-19T03:27:58.890Z,35.80
2017-12-19T03:28:58.876Z,34.70
2017-12-19T03:29:58.904Z,36.40
2017-12-19T03:30:58.860Z,36.00
2017-12-19T03:31:58.847Z,36.30
2017-12-19T03:32:58.835Z,35.50
2017-12-19T03:33:58.824Z,35.60
2017-12-19T03:34:58.818Z,34.40
2017-12-19T03:35:58.801Z,34.30
2017-12-19T03:36:58.789Z,36.70
2017-12-19T03:37:58.778Z,35.90
2017-12-19T03:38:58.761Z,35.30
2017-12-19T03:39:58.750Z,37.10
2017-12-19T03:40:58.739Z,36.10
2017-12-19T03:41:58.727Z,36.20
2017-12-19T03:42:58.715Z,35.90
2017-12-19T03:43:58.703Z,35.10
2017-12-19T03:44:58.690Z,35.50
2017-12-19T03:45:58.682Z,35.30
2017-12-19T03:46:58.673Z,35.70
2017-12-19T03:47:58.662Z,35.90
2017-12-19T03:48:58.650Z,37.40
2017-12-19T03:49:58.639Z,37.80
2017-12-19T03:50:58.627Z,35.80
2017-12-19T03:51:58.616Z,35.30
2017-12-19T03:52:58.606Z,35.90
2017-12-19T03:53:58.592Z,35.60
2017-12-19T03:54:58.576Z,36.80
2017-12-19T03:55:58.565Z,35.90
2017-12-19T03:56:58.555Z,36.60
2017-12-19T03:57:58.541Z,35.40
2017-12-19T03:58:58.530Z,36.20
2017-12-19T03:59:58.518Z,36.10
2017-12-19T04:00:58.507Z,36.20
2017-12-19T04:01:58.495Z,35.00
2017-12-19T04:02:58.488Z,36.00
2017-12-19T04:03:58.476Z,36.80
2017-12-19T04:04:58.465Z,36.20
2017-12-19T04:05:58.463Z,35.60
2017-12-19T04:06:58.441Z,35.70
2017-12-19T04:07:58.431Z,35.30
2017-12-19T04:08:58.418Z,35.60
2017-12-19T04:09:58.408Z,35.80
2017-12-19T04:10:58.391Z,36.00
2017-12-19T04:11:58.379Z,36.20
2017-12-19T04:12:58.368Z,37.30
2017-12-19T04:13:58.355Z,37.30
2017-12-19T04:14:58.346Z,37.90
2017-12-19T04:15:58.334Z,36.70
2017-12-19T04:16:58.321Z,36.90
2017-12-19T04:17:58.312Z,37.10
2017-12-19T04:18:58.303Z,36.40
2017-12-19T04:19:58.292Z,36.60
2017-12-19T04:20:58.280Z,36.60
2017-12-19T04:21:58.269Z,37.30
2017-12-19T04:22:58.257Z,36.60
2017-12-19T04:23:58.246Z,36.00
2017-12-19T04:24:58.234Z,37.80
2017-12-19T04:25:58.223Z,36.90
2017-12-19T04:26:58.210Z,37.70
2017-12-19T04:27:58.194Z,36.20
2017-12-19T04:28:58.182Z,35.70
2017-12-19T04:29:58.171Z,35.30
2017-12-19T04:30:58.161Z,36.80
2017-12-19T04:31:58.150Z,35.70
2017-12-19T04:32:58.136Z,36.70
2017-12-19T04:33:58.126Z,36.50
2017-12-19T04:34:58.118Z,36.20
2017-12-19T04:35:58.108Z,35.10
2017-12-19T04:36:58.095Z,36.10
2017-12-19T04:37:58.087Z,35.10
2017-12-19T04:38:58.072Z,37.20
2017-12-19T04:39:58.061Z,35.90
2017-12-19T04:40:58.048Z,35.20
2017-12-19T04:41:58.037Z,35.10
2017-12-19T04:42:58.022Z,34.60
2017-12-19T04:43:58.011Z,34.20
2017-12-19T04:44:57.998Z,36.40
2017-12-19T04:45:57.987Z,36.00
2017-12-19T04:46:57.975Z,36.60
2017-12-19T04:47:57.964Z,35.80
2017-12-19T04:48:57.952Z,36.00
2017-12-19T04:49:57.941Z,35.30
2017-12-19T04:50:57.932Z,36.30
2017-12-19T04:51:57.921Z,36.20
2017-12-19T04:52:57.910Z,36.60
2017-12-19T04:53:57.899Z,35.10
2017-12-19T04:54:57.888Z,34.60
2017-12-19T04:55:57.875Z,33.70
2017-12-19T04:56:57.864Z,34.50
2017-12-19T04:57:57.852Z,35.40
2017-12-19T04:58:57.837Z,33.20
2017-12-19T04:59:57.825Z,34.70
2017-12-19T05:00:57.813Z,34.00
2017-12-19T05:01:57.804Z,36.20
2017-12-19T05:02:57.795Z,35.10
2017-12-19T05:03:57.784Z,36.80
2017-12-19T05:04:57.771Z,36.40
2017-12-19T05:05:57.785Z,38.10
2017-12-19T05:06:57.744Z,36.90
2017-12-19T05:07:57.734Z,34.90
2017-12-19T05:08:57.720Z,36.40
2017-12-19T05:09:57.711Z,36.40
2017-12-19T05:10:57.700Z,35.70
2017-12-19T05:11:57.688Z,37.60
2017-12-19T05:12:57.675Z,36.70
2017-12-19T05:13:57.664Z,36.20
2017-12-19T05:14:57.657Z,36.70
2017-12-19T05:15:57.651Z,37.40
2017-12-19T05:16:57.636Z,34.60
2017-12-19T05:17:57.623Z,37.20
2017-12-19T05:18:57.612Z,35.90
2017-12-19T05:19:57.600Z,38.80
2017-12-19T05:20:57.588Z,35.10
2017-12-19T05:21:57.577Z,36.10
2017-12-19T05:22:57.561Z,37.60
2017-12-19T05:23:57.550Z,38.60
2017-12-19T05:24:57.537Z,37.90
2017-12-19T05:25:57.526Z,37.10
2017-12-19T05:26:57.514Z,39.60
2017-12-19T05:27:57.502Z,38.90
2017-12-19T05:28:57.490Z,40.20
2017-12-19T05:29:57.481Z,38.90
2017-12-19T05:30:57.473Z,37.50
2017-12-19T05:31:57.462Z,38.80
2017-12-19T05:32:57.450Z,39.10
2017-12-19T05:33:57.438Z,38.60
2017-12-19T05:34:57.427Z,38.60
2017-12-19T05:35:57.416Z,37.80
2017-12-19T05:36:57.403Z,38.70
2017-12-19T05:37:57.392Z,37.50
2017-12-19T05:38:57.377Z,38.30
2017-12-19T05:39:57.366Z,39.30
2017-12-19T05:40:57.353Z,37.60
2017-12-19T05:41:57.343Z,38.40
2017-12-19T05:42:57.330Z,39.30
2017-12-19T05:43:57.319Z,40.20
2017-12-19T05:44:57.308Z,39.40
2017-12-19T05:45:57.296Z,40.60
2017-12-19T05:46:57.290Z,40.50
2017-12-19T05:47:57.279Z,39.70
2017-12-19T05:48:57.265Z,37.50
2017-12-19T05:49:57.256Z,38.90
2017-12-19T05:50:57.244Z,40.40
2017-12-19T05:51:57.233Z,39.50
2017-12-19T05:52:57.220Z,39.80
2017-12-19T05:53:57.209Z,41.90
2017-12-19T05:54:57.195Z,40.60
2017-12-19T05:55:57.183Z,41.70
2017-12-19T05:56:57.170Z,40.70
2017-12-19T05:57:57.159Z,40.10
2017-12-19T05:58:57.147Z,40.00
2017-12-19T05:59:57.139Z,40.40
2017-12-19T06:00:57.123Z,39.70
2017-12-19T06:01:57.112Z,43.40
2017-12-19T06:02:57.106Z,41.20
2017-12-19T06:03:57.095Z,39.40
2017-12-19T06:04:57.082Z,40.50
2017-12-19T06:05:57.071Z,42.60
2017-12-19T06:06:57.055Z,43.90
2017-12-19T06:07:57.044Z,40.00
2017-12-19T06:08:57.031Z,40.00
2017-12-19T06:09:57.021Z,42.40
2017-12-19T06:10:57.013Z,41.80
2017-12-19T06:11:57.001Z,41.70
2017-12-19T06:12:56.989Z,39.60
2017-12-19T06:13:56.978Z,41.90
2017-12-19T06:14:56.968Z,41.10
2017-12-19T06:15:56.956Z,41.90
2017-12-19T06:16:56.944Z,39.60
2017-12-19T06:17:56.933Z,39.20
2017-12-19T06:18:56.916Z,41.90
2017-12-19T06:19:56.906Z,39.50
2017-12-19T06:20:56.893Z,40.10
2017-12-19T06:21:56.881Z,39.10
2017-12-19T06:22:56.872Z,40.50
2017-12-19T06:23:56.860Z,39.70
2017-12-19T06:24:56.848Z,39.00
2017-12-19T06:25:56.838Z,40.70
2017-12-19T06:26:56.831Z,39.30
2017-12-19T06:27:56.819Z,41.10
2017-12-19T06:28:56.809Z,41.70
2017-12-19T06:29:56.795Z,39.10
2017-12-19T06:30:56.785Z,40.50
2017-12-19T06:31:56.774Z,39.00
2017-12-19T06:32:56.766Z,39.10
2017-12-19T06:33:56.751Z,40.90
2017-12-19T06:34:56.735Z,41.00
2017-12-19T06:35:56.724Z,42.40
2017-12-19T06:36:56.712Z,41.70
2017-12-19T06:37:56.708Z,42.10
2017-12-19T06:38:56.690Z,40.50
2017-12-19T06:39:56.679Z,40.80
2017-12-19T06:40:56.667Z,39.50
2017-12-19T06:41:56.656Z,41.60
2017-12-19T06:42:56.649Z,41.40
2017-12-19T06:43:56.637Z,40.60
2017-12-19T06:44:56.626Z,39.80
2017-12-19T06:45:56.614Z,40.20
2017-12-19T06:46:56.604Z,41.20
2017-12-19T06:47:56.593Z,41.00
2017-12-19T06:48:56.580Z,41.00
2017-12-19T06:49:56.573Z,41.20
2017-12-19T06:50:56.555Z,42.30
2017-12-19T06:51:56.543Z,40.90
2017-12-19T06:52:56.532Z,42.30
2017-12-19T06:53:56.519Z,39.80
2017-12-19T06:54:56.509Z,39.20
2017-12-19T06:55:56.506Z,41.00
2017-12-19T06:56:56.487Z,39.90
2017-12-19T06:57:56.475Z,39.80
2017-12-19T06:58:56.468Z,41.00
2017-12-19T06:59:56.459Z,41.70
2017-12-19T07:00:56.445Z,40.10
2017-12-19T07:01:56.435Z,40.10
2017-12-19T07:02:56.424Z,42.20
2017-12-19T07:03:56.412Z,41.90
2017-12-19T07:04:56.401Z,42.40
2017-12-19T07:05:56.390Z,43.10
2017-12-19T07:06:56.374Z,42.80
2017-12-19T07:07:56.363Z,44.70
2017-12-19T07:08:56.350Z,44.20
2017-12-19T07:09:56.345Z,42.90
2017-12-19T07:10:56.334Z,44.30
2017-12-19T07:11:56.323Z,43.50
2017-12-19T07:12:56.311Z,43.40
2017-12-19T07:13:56.302Z,45.00
2017-12-19T07:14:56.284Z,44.10
2017-12-19T07:15:56.274Z,45.00
2017-12-19T07:16:56.261Z,42.80
2017-12-19T07:17:56.250Z,44.10
2017-12-19T07:18:56.239Z,44.00
2017-12-19T07:19:56.229Z,42.90
2017-12-19T07:20:56.216Z,43.00
2017-12-19T07:21:56.206Z,44.90
2017-12-19T07:22:56.199Z,46.00
2017-12-19T07:23:56.188Z,46.60
2017-12-19T07:24:56.176Z,46.30
2017-12-19T07:25:56.170Z,48.50
2017-12-19T07:26:56.155Z,48.50
2017-12-19T07:27:56.143Z,48.70
2017-12-19T07:28:56.131Z,48.90
2017-12-19T07:29:56.121Z,48.20
2017-12-19T07:30:56.106Z,50.20
2017-12-19T07:31:56.096Z,51.70
2017-12-19T07:32:56.083Z,50.80
2017-12-19T07:33:56.073Z,52.00
2017-12-19T07:34:56.061Z,50.00
2017-12-19T07:35:56.056Z,50.30
2017-12-19T07:36:56.037Z,51.90
2017-12-19T07:37:56.025Z,50.70
2017-12-19T07:38:56.019Z,49.70
2017-12-19T07:39:56.009Z,50.50
2017-12-19T07:40:55.997Z,50.10
2017-12-19T07:41:55.985Z,49.60
2017-12-19T07:42:55.975Z,53.30
2017-12-19T07:43:55.964Z,52.60
2017-12-19T07:44:55.952Z,51.90
2017-12-19T07:45:55.941Z,52.30
2017-12-19T07:46:55.927Z,51.70
2017-12-19T07:47:55.914Z,53.90
2017-12-19T07:48:55.903Z,53.40
2017-12-19T07:49:55.892Z,52.30
2017-12-19T07:50:55.888Z,53.00
2017-12-19T07:51:55.870Z,54.50
2017-12-19T07:52:55.857Z,49.00
2017-12-19T07:53:55.847Z,51.20
2017-12-19T07:54:55.840Z,53.70
2017-12-19T07:55:55.829Z,53.10
2017-12-19T07:56:55.817Z,51.60
2017-12-19T07:57:55.807Z,50.90
2017-12-19T07:58:55.796Z,50.30
2017-12-19T07:59:55.784Z,50.50
2017-12-19T08:00:55.772Z,51.10
2017-12-19T08:01:55.760Z,50.50
2017-12-19T08:02:55.745Z,51.20
2017-12-19T08:03:55.735Z,53.00
2017-12-19T08:04:55.723Z,49.90
2017-12-19T08:05:55.711Z,52.90
2017-12-19T08:06:55.702Z,50.20
2017-12-19T08:07:55.741Z,48.90
2017-12-19T08:08:55.679Z,51.60
2017-12-19T08:09:55.669Z,51.40
2017-12-19T08:10:55.661Z,47.50
2017-12-19T08:11:55.651Z,51.90
2017-12-19T08:12:55.638Z,51.30
2017-12-19T08:13:55.628Z,51.00
2017-12-19T08:14:55.613Z,49.30
2017-12-19T08:15:55.605Z,51.10
2017-12-19T08:16:55.590Z,51.10
2017-12-19T08:17:55.580Z,48.40
2017-12-19T08:18:55.573Z,48.10
2017-12-19T08:19:55.563Z,48.30
2017-12-19T08:20:55.550Z,46.60
2017-12-19T08:21:55.540Z,52.00
2017-12-19T08:22:55.530Z,46.20
2017-12-19T08:23:55.518Z,47.50
2017-12-19T08:24:55.505Z,48.00
2017-12-19T08:25:55.497Z,47.00
2017-12-19T08:26:55.480Z,47.70
2017-12-19T08:27:55.470Z,48.60
2017-12-19T08:28:55.458Z,49.70
2017-12-19T08:29:55.453Z,48.90
2017-12-19T08:30:55.437Z,48.70
2017-12-19T08:31:55.426Z,48.10
2017-12-19T08:32:55.415Z,47.50
2017-12-19T08:33:55.408Z,47.80
2017-12-19T08:34:55.398Z,45.10
2017-12-19T08:35:55.387Z,47.90
2017-12-19T08:36:55.375Z,47.50
2017-12-19T08:37:55.365Z,49.20
2017-12-19T08:38:55.353Z,49.80
2017-12-19T08:39:55.353Z,47.60
2017-12-19T08:40:55.332Z,47.30
2017-12-19T08:41:55.322Z,46.40
2017-12-19T08:42:55.307Z,49.50
2017-12-19T08:43:55.296Z,48.50
2017-12-19T08:44:55.284Z,48.40
2017-12-19T08:45:55.281Z,46.40
2017-12-19T08:46:55.264Z,45.70
2017-12-19T08:47:55.253Z,46.20
2017-12-19T08:48:55.242Z,47.90
2017-12-19T08:49:55.237Z,46.00
2017-12-19T08:50:55.225Z,48.00
2017-12-19T08:51:55.215Z,48.90
2017-12-19T08:52:55.203Z,46.80
2017-12-19T08:53:55.193Z,47.20
2017-12-19T08:54:55.242Z,48.00
2017-12-19T08:55:55.171Z,48.90
2017-12-19T08:56:55.161Z,46.90
2017-12-19T08:57:55.150Z,46.90
2017-12-19T08:58:55.135Z,47.80
2017-12-19T08:59:55.125Z,47.50
2017-12-19T09:00:55.114Z,46.70
2017-12-19T09:01:55.121Z,48.30
2017-12-19T09:02:55.094Z,45.90
2017-12-19T09:03:55.083Z,45.50
2017-12-19T09:04:55.070Z,46.70
2017-12-19T09:05:55.062Z,44.60
2017-12-19T09:06:55.056Z,43.20
2017-12-19T09:07:55.046Z,42.70
2017-12-19T09:08:55.034Z,46.10
2017-12-19T09:09:55.023Z,43.20
2017-12-19T09:10:55.021Z,42.80
2017-12-19T09:11:55.003Z,42.30
2017-12-19T09:12:54.991Z,42.80
2017-12-19T09:13:54.982Z,40.60
2017-12-19T09:14:54.967Z,42.50
2017-12-19T09:15:54.965Z,42.40
2017-12-19T09:16:54.946Z,41.30
2017-12-19T09:17:54.940Z,42.90
2017-12-19T09:18:54.931Z,41.50
2017-12-19T09:19:54.921Z,43.50
2017-12-19T09:20:54.910Z,42.40
2017-12-19T09:21:54.900Z,42.00
2017-12-19T09:22:54.885Z,42.60
2017-12-19T09:23:54.876Z,40.30
2017-12-19T09:24:54.867Z,41.30
2017-12-19T09:25:54.854Z,41.70
2017-12-19T09:26:54.844Z,39.20
2017-12-19T09:27:54.836Z,43.80
2017-12-19T09:28:54.826Z,41.10
2017-12-19T09:29:54.814Z,41.40
2017-12-19T09:30:54.808Z,39.20
2017-12-19T09:31:54.799Z,41.00
2017-12-19T09:32:54.789Z,39.50
2017-12-19T09:33:54.779Z,39.70
2017-12-19T09:34:54.769Z,40.40
2017-12-19T09:35:54.761Z,40.90
2017-12-19T09:36:54.748Z,41.20
2017-12-19T09:37:54.740Z,40.20
2017-12-19T09:38:54.724Z,41.10
2017-12-19T09:39:54.716Z,40.90
2017-12-19T09:40:54.706Z,40.40
2017-12-19T09:41:54.696Z,42.50
2017-12-19T09:42:54.685Z,43.10
2017-12-19T09:43:54.684Z,40.90
2017-12-19T09:44:54.665Z,44.90
2017-12-19T09:45:54.657Z,44.40
2017-12-19T09:46:54.652Z,43.40
2017-12-19T09:47:54.641Z,43.60
2017-12-19T09:48:54.631Z,44.60
2017-12-19T09:49:54.620Z,44.80
2017-12-19T09:50:54.612Z,44.60
2017-12-19T09:51:54.602Z,45.40
2017-12-19T09:52:54.591Z,43.90
2017-12-19T09:53:54.582Z,45.90
2017-12-19T09:54:54.568Z,44.20
2017-12-19T09:55:54.558Z,46.30
2017-12-19T09:56:54.547Z,46.00
2017-12-19T09:57:54.539Z,43.40
2017-12-19T09:58:54.529Z,45.50
2017-12-19T09:59:54.519Z,46.00
2017-12-19T10:00:54.508Z,48.50
2017-12-19T10:01:54.498Z,45.90
2017-12-19T10:02:54.493Z,47.60
2017-12-19T10:03:54.485Z,46.00
2017-12-19T10:04:54.474Z,46.00
2017-12-19T10:05:54.467Z,47.20
2017-12-19T10:06:54.454Z,46.80
2017-12-19T10:07:54.445Z,45.90
2017-12-19T10:08:54.434Z,47.10
2017-12-19T10:09:54.426Z,48.20
2017-12-19T10:10:54.411Z,44.70
2017-12-19T10:11:54.401Z,46.50
2017-12-19T10:12:54.390Z,44.90
2017-12-19T10:13:54.380Z,43.90
2017-12-19T10:14:54.372Z,45.40
2017-12-19T10:15:54.362Z,45.10
2017-12-19T10:16:54.351Z,45.80
2017-12-19T10:17:54.341Z,43.20
2017-12-19T10:18:54.336Z,45.90
2017-12-19T10:19:54.327Z,44.30
2017-12-19T10:20:54.316Z,43.50
2017-12-19T10:21:54.307Z,45.30
2017-12-19T10:22:54.293Z,42.80
2017-12-19T10:23:54.284Z,46.00
2017-12-19T10:24:54.275Z,45.80
2017-12-19T10:25:54.264Z,46.30
2017-12-19T10:26:54.258Z,45.70
2017-12-19T10:27:54.249Z,44.30
2017-12-19T10:28:54.239Z,44.90
2017-12-19T10:29:54.229Z,46.10
2017-12-19T10:30:54.220Z,47.80
2017-12-19T10:31:54.215Z,47.30
2017-12-19T10:32:54.199Z,48.70
2017-12-19T10:33:54.190Z,48.10
2017-12-19T10:34:54.177Z,51.50
2017-12-19T10:35:54.167Z,48.30
2017-12-19T10:36:54.156Z,47.60
2017-12-19T10:37:54.147Z,49.20
2017-12-19T10:38:54.138Z,49.20
2017-12-19T10:39:54.128Z,49.90
2017-12-19T10:40:54.118Z,50.80
2017-12-19T10:41:54.116Z,50.50
2017-12-19T10:42:54.112Z,50.40
2017-12-19T10:43:54.094Z,47.80
2017-12-19T10:44:54.082Z,50.10
2017-12-19T10:45:54.073Z,48.90
2017-12-19T10:46:54.064Z,46.00
2017-12-19T10:47:54.055Z,50.10
2017-12-19T10:48:54.044Z,46.30
2017-12-19T10:49:54.034Z,49.30
2017-12-19T10:50:54.021Z,49.10
2017-12-19T10:51:54.011Z,47.30
2017-12-19T10:52:54.001Z,49.10
2017-12-19T10:53:53.992Z,51.00
2017-12-19T10:54:53.982Z,48.80
2017-12-19T10:55:53.972Z,50.80
2017-12-19T10:56:53.962Z,49.30
2017-12-19T10:57:53.952Z,50.90
2017-12-19T10:58:53.947Z,51.00
2017-12-19T10:59:53.938Z,49.10
2017-12-19T11:00:53.927Z,49.50
2017-12-19T11:01:53.918Z,50.10
2017-12-19T11:02:53.908Z,49.70
2017-12-19T11:03:53.898Z,48.40
2017-12-19T11:04:53.888Z,46.60
2017-12-19T11:05:53.879Z,45.20
2017-12-19T11:06:53.864Z,46.10
2017-12-19T11:07:53.871Z,43.50
2017-12-19T11:08:53.845Z,45.80
2017-12-19T11:09:53.836Z,41.40
2017-12-19T11:10:53.825Z,44.80
2017-12-19T11:11:53.817Z,41.70
2017-12-19T11:12:53.806Z,41.40
2017-12-19T11:13:53.817Z,41.60
2017-12-19T11:14:53.792Z,41.00
2017-12-19T11:15:53.783Z,41.30
2017-12-19T11:16:53.771Z,39.40
2017-12-19T11:17:53.761Z,38.10
2017-12-19T11:18:53.753Z,39.00
2017-12-19T11:19:53.744Z,40.10
2017-12-19T11:20:53.740Z,39.00
2017-12-19T11:21:53.724Z,39.90
2017-12-19T11:22:53.710Z,38.70
2017-12-19T11:23:53.701Z,38.30
2017-12-19T11:24:53.691Z,37.60
2017-12-19T11:25:53.680Z,38.10
2017-12-19T11:26:53.676Z,37.20
2017-12-19T11:27:53.667Z,38.00
2017-12-19T11:28:53.681Z,38.40
2017-12-19T11:29:53.647Z,36.10
2017-12-19T11:30:53.634Z,38.10
2017-12-19T11:31:53.835Z,36.30
2017-12-19T11:32:53.615Z,36.80
2017-12-19T11:33:53.605Z,37.70
2017-12-19T11:34:53.595Z,36.40
2017-12-19T11:35:53.592Z,36.80
2017-12-19T11:36:53.577Z,38.10
2017-12-19T11:37:53.569Z,35.70
2017-12-19T11:38:53.563Z,37.00
2017-12-19T11:39:53.554Z,37.10
2017-12-19T11:40:53.544Z,37.60
2017-12-19T11:41:53.535Z,37.60
2017-12-19T11:42:53.526Z,36.90
2017-12-19T11:43:53.558Z,38.60
2017-12-19T11:44:53.507Z,36.70
2017-12-19T11:45:53.498Z,38.30
2017-12-19T11:46:53.485Z,36.60
2017-12-19T11:47:53.476Z,37.40
2017-12-19T11:48:53.467Z,38.70
2017-12-19T11:49:53.457Z,36.30
2017-12-19T11:50:53.449Z,38.60
2017-12-19T11:51:53.439Z,36.90
2017-12-19T11:52:53.430Z,39.00
2017-12-19T11:53:53.426Z,38.60
2017-12-19T11:54:53.417Z,39.60
2017-12-19T11:55:53.408Z,39.90
2017-12-19T11:56:53.396Z,39.20
2017-12-19T11:57:53.389Z,41.10
2017-12-19T11:58:53.380Z,39.80
2017-12-19T11:59:53.372Z,38.50
2017-12-19T12:00:53.362Z,40.20
2017-12-19T12:01:53.353Z,41.50
2017-12-19T12:02:53.340Z,38.20
2017-12-19T12:03:53.331Z,39.30
2017-12-19T12:04:53.320Z,39.00
2017-12-19T12:05:53.313Z,39.60
2017-12-19T12:06:53.304Z,38.60
2017-12-19T12:07:53.333Z,37.10
2017-12-19T12:08:53.286Z,39.90
2017-12-19T12:09:53.277Z,38.30
2017-12-19T12:10:53.273Z,37.50
2017-12-19T12:11:53.264Z,37.30
2017-12-19T12:12:53.254Z,38.70
2017-12-19T12:13:53.245Z,38.00
2017-12-19T12:14:53.237Z,35.70
2017-12-19T12:15:53.229Z,37.00
2017-12-19T12:16:53.219Z,36.10
2017-12-19T12:17:53.211Z,36.60
2017-12-19T12:18:53.198Z,38.00
2017-12-19T12:19:53.189Z,37.30
2017-12-19T12:20:53.178Z,36.20
2017-12-19T12:21:53.172Z,34.70
2017-12-19T12:22:53.163Z,34.70
2017-12-19T12:23:53.153Z,36.60
2017-12-19T12:24:53.144Z,33.20
2017-12-19T12:25:53.136Z,32.90
2017-12-19T12:26:53.137Z,33.60
2017-12-19T12:27:53.123Z,33.80
2017-12-19T12:28:53.113Z,34.30
2017-12-19T12:29:53.104Z,34.30
2017-12-19T12:30:53.105Z,33.40
2017-12-19T12:31:53.088Z,33.70
2017-12-19T12:32:53.079Z,36.40
2017-12-19T12:33:53.071Z,36.40
2017-12-19T12:34:53.058Z,35.50
2017-12-19T12:35:53.049Z,36.10
2017-12-19T12:36:53.040Z,34.60
2017-12-19T12:37:53.034Z,36.50
2017-12-19T12:38:53.023Z,35.40
2017-12-19T12:39:53.014Z,34.70
2017-12-19T12:40:53.006Z,36.10
2017-12-19T12:41:53.002Z,36.90
2017-12-19T12:42:52.993Z,36.60
2017-12-19T12:43:52.985Z,36.30
2017-12-19T12:44:52.976Z,36.70
2017-12-19T12:45:52.968Z,37.70
2017-12-19T12:46:52.958Z,36.80
2017-12-19T12:47:52.950Z,37.90
2017-12-19T12:48:52.941Z,36.70
2017-12-19T12:49:52.931Z,36.70
2017-12-19T12:50:52.923Z,37.90
2017-12-19T12:51:52.911Z,39.30